Avoca, Pennsylvania
Current Conditions -  °F | °C
As of 3:54 AM on Thursday 27 Nov 2014 (Local Time) from KAVP Reporting Station
Overcast Overcast  
Wind Chill: 22°   Ceiling: 1200
Heat Index: 31°   Visibility: 10mi
Dew Point: 26°   Wind: 10mph
Humidity: 82%   Direction: 290°WNW
Pressure: 29.94"   Gusts: NA
Location:  41.3331°N, 75.7365°W
Report Text: KAVP 270854Z AUTO 29009KT 10SM OVC012 M01/M03 A2994 RMK AO2 SNE29 SLP145 P0000 60000 T10061033 51010
Loading
Personal Weather Stations






























Interactive Weather Map New forecast layout! Learn more

10-Day Weather Forecast

Advertisements
Track Severe Weather on mobile